Time;durP1;ratioP1;P1;durP2;ratioP2;P2;SDS_P1;SDS_P2;PMS_P1;PMS_P2;Temp;Humidity;BMP_temperature;BMP_pressure;BME280_temperature;BME280_humidity;BME280_pressure;Samples;Min_cycle;Max_cycle;Signal;HPM_P1;HPM_P2
2022/05/31 00:02:02;;;;;;;3.55;2.55;;;;;;;9.02;94.88;101393.25;5011403;28;20196;-48
2022/05/31 00:04:28;;;;;;;2.60;2.40;;;;;;;9.00;95.58;101379.91;5009587;28;20197;-51
2022/05/31 00:06:54;;;;;;;2.80;2.40;;;;;;;8.92;95.77;101389.94;5011244;28;20660;-49
2022/05/31 00:09:20;;;;;;;4.60;2.47;;;;;;;8.83;95.92;101385.66;5011452;28;20181;-51
2022/05/31 00:11:45;;;;;;;2.90;2.58;;;;;;;8.90;96.16;101386.41;5011435;28;20260;-50
2022/05/31 00:14:13;;;;;;;3.33;2.65;;;;;;;8.83;96.20;101387.44;5009223;28;20201;-49
2022/05/31 00:16:39;;;;;;;3.13;2.33;;;;;;;8.85;96.33;101375.81;5011418;28;20169;-50
2022/05/31 00:19:05;;;;;;;2.67;2.47;;;;;;;8.82;96.08;101383.03;5011450;28;20520;-49
2022/05/31 00:21:44;;;;;;;5.93;2.53;;;;;;;8.71;96.10;101385.06;5011136;28;20172;-48
2022/05/31 00:24:16;;;;;;;3.42;2.40;;;;;;;8.59;96.41;101380.84;5010430;28;20327;-47
2022/05/31 00:26:42;;;;;;;3.45;2.17;;;;;;;8.55;96.20;101382.72;5010659;28;20792;-47
2022/05/31 00:29:09;;;;;;;2.83;2.45;;;;;;;8.57;96.72;101375.53;5011309;28;20670;-49
2022/05/31 00:31:36;;;;;;;2.53;2.33;;;;;;;8.47;96.63;101371.31;5010792;28;20550;-48
2022/05/31 00:34:02;;;;;;;3.47;2.40;;;;;;;8.48;96.39;101381.06;5009728;28;20181;-48
2022/05/31 00:36:27;;;;;;;2.55;2.35;;;;;;;8.44;96.69;101374.03;5010882;28;20267;-48
2022/05/31 00:38:54;;;;;;;4.60;2.50;;;;;;;8.46;96.36;101385.53;5010957;28;20255;-47
2022/05/31 00:41:23;;;;;;;5.40;3.10;;;;;;;8.27;96.07;101381.47;5010799;28;20177;-47
2022/05/31 00:43:49;;;;;;;3.38;2.70;;;;;;;8.15;96.36;101387.91;5010064;28;20208;-47
2022/05/31 00:46:14;;;;;;;2.85;2.58;;;;;;;8.02;97.41;101374.84;5009550;28;20183;-47
2022/05/31 00:48:49;;;;;;;2.80;2.60;;;;;;;7.96;97.64;101371.38;5010850;28;20652;-48
2022/05/31 00:51:17;;;;;;;2.95;2.50;;;;;;;8.03;98.27;101381.03;5009361;28;20371;-47
2022/05/31 00:53:47;;;;;;;3.15;2.35;;;;;;;8.01;98.71;101386.41;5009966;28;20184;-47
2022/05/31 00:56:18;;;;;;;3.22;2.63;;;;;;;8.11;98.55;101381.78;5009188;28;20184;-48
2022/05/31 00:58:50;;;;;;;4.85;2.78;;;;;;;8.17;98.31;101370.97;5010858;28;20591;-47
2022/05/31 01:01:17;;;;;;;2.80;2.60;;;;;;;8.16;97.89;101387.03;5009143;28;20188;-46
2022/05/31 01:03:44;;;;;;;5.75;2.70;;;;;;;7.99;97.87;101372.19;5008460;28;20200;-47
2022/05/31 01:06:10;;;;;;;8.18;2.70;;;;;;;7.88;98.00;101376.00;5008923;28;20176;-48
2022/05/31 01:08:37;;;;;;;3.05;2.47;;;;;;;7.95;98.60;101374.97;5009183;28;20189;-47
2022/05/31 01:11:23;;;;;;;3.08;2.42;;;;;;;7.98;98.63;101369.56;5013231;28;20211;-47
2022/05/31 01:14:08;;;;;;;3.65;2.67;;;;;;;7.75;98.45;101384.19;5013124;28;20257;-47
2022/05/31 01:17:06;;;;;;;3.15;2.20;;;;;;;7.88;99.14;101368.00;5030263;28;20187;-48
2022/05/31 01:20:06;;;;;;;4.78;2.63;;;;;;;7.81;98.97;101365.41;5029516;28;20255;-46
2022/05/31 01:22:39;;;;;;;2.55;2.30;;;;;;;7.88;98.81;101370.66;5028424;28;20221;-46
2022/05/31 01:25:23;;;;;;;4.10;2.50;;;;;;;7.76;98.50;101382.41;5028330;28;20172;-46
2022/05/31 01:28:10;;;;;;;3.60;2.40;;;;;;;7.77;98.47;101379.72;5029534;28;20184;-45
2022/05/31 01:30:41;;;;;;;3.08;2.60;;;;;;;7.57;98.15;101388.06;5028907;28;20176;-45
2022/05/31 01:33:21;;;;;;;2.67;2.47;;;;;;;7.66;98.76;101379.03;5028204;28;20195;-45
2022/05/31 01:35:47;;;;;;;2.47;2.10;;;;;;;7.67;98.67;101375.44;5028944;28;20156;-46
2022/05/31 01:38:32;;;;;;;3.63;2.38;;;;;;;7.51;98.41;101387.28;5028652;28;20650;-44
2022/05/31 01:41:19;;;;;;;3.28;2.13;;;;;;;7.52;98.28;101399.69;5029777;28;20183;-44
2022/05/31 01:43:48;;;;;;;3.13;2.30;;;;;;;7.51;98.92;101389.97;5029832;28;20291;-45
2022/05/31 01:46:27;;;;;;;3.42;2.53;;;;;;;7.29;98.83;101398.28;5032081;28;20593;-45
2022/05/31 01:48:53;;;;;;;2.83;2.33;;;;;;;7.19;98.84;101386.00;5033823;28;20199;-44
2022/05/31 01:51:20;;;;;;;4.10;2.60;;;;;;;7.22;99.41;101389.50;5033574;28;20182;-44
2022/05/31 01:53:45;;;;;;;2.90;2.42;;;;;;;7.31;99.72;101384.97;5033010;28;20226;-45
2022/05/31 01:56:13;;;;;;;3.20;2.22;;;;;;;7.34;99.36;101388.44;5031804;28;20183;-44
2022/05/31 01:58:42;;;;;;;2.20;2.08;;;;;;;7.42;99.30;101391.00;5032380;28;20192;-44
2022/05/31 02:01:09;;;;;;;4.55;2.40;;;;;;;7.33;98.82;101394.69;5032259;28;20254;-46
2022/05/31 02:03:39;;;;;;;2.30;2.10;;;;;;;7.35;98.64;101392.00;5033764;28;20286;-42
2022/05/31 02:06:21;;;;;;;3.42;2.35;;;;;;;7.38;98.73;101389.28;5033757;28;20269;-45
2022/05/31 02:08:48;;;;;;;2.55;2.35;;;;;;;7.42;99.12;101391.88;5033589;28;20168;-44
2022/05/31 02:11:13;;;;;;;2.28;1.85;;;;;;;7.44;98.88;101391.84;5032359;28;20644;-43
2022/05/31 02:13:39;;;;;;;3.30;2.10;;;;;;;7.42;99.06;101391.88;5032019;28;20200;-43
2022/05/31 02:16:10;;;;;;;2.30;2.08;;;;;;;7.37;98.73;101388.41;5032302;28;20199;-44
2022/05/31 02:22:06;;;;;;;3.35;1.98;;;;;;;7.09;99.47;101389.75;5027203;28;20207;-42
2022/05/31 02:24:32;;;;;;;3.08;2.22;;;;;;;7.13;99.79;101389.66;5032091;28;20634;-42
2022/05/31 02:27:00;;;;;;;2.42;2.22;;;;;;;7.12;99.92;101392.34;5032033;28;20191;-42
2022/05/31 02:29:29;;;;;;;5.20;2.90;;;;;;;7.09;100.00;101392.41;5032194;28;20246;-43
2022/05/31 02:31:57;;;;;;;5.63;2.70;;;;;;;7.17;100.00;101380.72;5033174;28;20164;-44
2022/05/31 02:34:25;;;;;;;3.67;2.42;;;;;;;7.19;100.00;101392.25;5031929;28;20194;-42
2022/05/31 02:36:51;;;;;;;3.25;2.78;;;;;;;7.25;100.00;101393.03;5033338;28;20238;-44
2022/05/31 02:39:18;;;;;;;2.83;2.28;;;;;;;7.18;100.00;101393.13;5031951;28;20168;-44
2022/05/31 02:41:45;;;;;;;3.47;2.58;;;;;;;7.22;100.00;101393.97;5031809;28;20172;-44
2022/05/31 02:44:11;;;;;;;3.10;2.30;;;;;;;7.16;100.00;101386.06;5032839;28;20254;-42
2022/05/31 02:46:38;;;;;;;2.72;2.30;;;;;;;7.10;100.00;101395.03;5031884;28;20283;-42
2022/05/31 02:49:06;;;;;;;3.90;2.33;;;;;;;7.17;100.00;101401.13;5031400;28;20554;-43
2022/05/31 02:51:41;;;;;;;5.20;2.20;;;;;;;7.06;100.00;101387.09;5032246;28;20545;-46
2022/05/31 02:54:07;;;;;;;2.53;2.30;;;;;;;7.12;100.00;101395.88;5031316;28;20199;-44
2022/05/31 02:56:52;;;;;;;2.20;2.10;;;;;;;7.03;100.00;101397.81;5032128;28;20163;-45
2022/05/31 02:59:36;;;;;;;4.10;2.50;;;;;;;7.05;100.00;101386.22;5032641;28;20314;-43
2022/05/31 03:02:20;;;;;;;4.60;2.65;;;;;;;7.08;100.00;101391.50;5032336;28;20755;-45
2022/05/31 03:05:04;;;;;;;2.97;2.20;;;;;;;7.05;99.93;101396.00;5032242;28;20266;-47
2022/05/31 03:07:48;;;;;;;2.55;2.15;;;;;;;7.13;100.00;101388.78;5032397;28;20222;-47
2022/05/31 03:10:17;;;;;;;2.75;2.53;;;;;;;7.09;99.72;101390.59;5031144;28;20635;-44
2022/05/31 03:12:44;;;;;;;3.63;2.20;;;;;;;7.07;100.00;101387.09;5032251;28;20263;-47
2022/05/31 03:15:14;;;;;;;3.20;2.30;;;;;;;7.09;99.97;101389.75;5032153;28;20195;-44
2022/05/31 03:17:46;;;;;;;3.47;2.45;;;;;;;7.01;99.82;101389.84;5032257;28;20173;-44
2022/05/31 03:20:18;;;;;;;2.78;2.47;;;;;;;6.99;100.00;101391.63;5032006;28;20649;-45
2022/05/31 03:22:49;;;;;;;2.58;2.38;;;;;;;7.04;99.78;101402.22;5031705;28;20626;-43
2022/05/31 03:25:27;;;;;;;2.80;2.58;;;;;;;7.01;100.00;101393.38;5031923;28;20188;-48
2022/05/31 03:27:58;;;;;;;4.00;2.90;;;;;;;7.05;100.00;101391.56;5031819;28;20185;-44
2022/05/31 03:30:23;;;;;;;4.65;2.50;;;;;;;7.07;100.00;101395.06;5030728;28;20276;-47
2022/05/31 03:32:50;;;;;;;3.30;3.00;;;;;;;7.05;100.00;101396.88;5031399;28;20570;-42
2022/05/31 03:35:16;;;;;;;3.58;2.72;;;;;;;7.09;100.00;101392.41;5030483;28;20521;-44
2022/05/31 03:37:41;;;;;;;3.95;2.70;;;;;;;7.00;100.00;101398.75;5030377;28;20180;-47
2022/05/31 03:43:08;;;;;;;3.47;2.90;;;;;;;7.16;100.00;101402.06;5030219;28;20200;-45
2022/05/31 03:45:35;;;;;;;4.60;2.90;;;;;;;7.12;100.00;101398.53;5030105;28;20238;-47
2022/05/31 03:48:22;;;;;;;4.18;2.70;;;;;;;6.96;100.00;101402.34;5031288;28;20184;-45
2022/05/31 03:51:06;;;;;;;4.40;4.00;;;;;;;6.90;100.00;101397.97;5030380;28;20178;-44
2022/05/31 03:53:32;;;;;;;5.45;4.90;;;;;;;7.01;100.00;101396.03;5030358;28;20688;-44
2022/05/31 03:56:03;;;;;;;4.70;4.20;;;;;;;7.06;100.00;101397.75;5030433;28;20182;-44
2022/05/31 03:58:29;;;;;;;4.57;4.00;;;;;;;7.06;100.00;101389.75;5030262;28;20649;-45
2022/05/31 04:01:03;;;;;;;4.45;4.05;;;;;;;7.07;100.00;101395.06;5030383;28;20626;-47
2022/05/31 04:03:29;;;;;;;4.47;3.22;;;;;;;6.85;100.00;101390.97;5029712;28;20211;-46
2022/05/31 04:05:54;;;;;;;4.88;3.20;;;;;;;6.90;100.00;101387.31;5030246;28;20182;-47
2022/05/31 04:08:24;;;;;;;4.50;3.08;;;;;;;7.01;100.00;101389.84;5012959;28;20176;-45
2022/05/31 04:10:49;;;;;;;3.63;3.22;;;;;;;7.14;100.00;101396.75;5013786;28;20242;-46
2022/05/31 04:13:16;;;;;;;5.70;3.50;;;;;;;7.08;100.00;101401.28;5030018;28;20674;-47
2022/05/31 04:16:16;;;;;;;4.95;3.65;;;;;;;7.11;100.00;101396.78;5031158;28;20183;-49
2022/05/31 04:18:50;;;;;;;5.55;4.20;;;;;;;7.22;100.00;101392.19;5030035;28;20543;-44
2022/05/31 04:21:17;;;;;;;5.25;3.38;;;;;;;7.31;100.00;101399.16;5029659;28;20168;-47
2022/05/31 04:24:01;;;;;;;4.80;3.70;;;;;;;7.09;100.00;101390.59;5031060;28;20204;-45
2022/05/31 04:26:47;;;;;;;5.20;3.80;;;;;;;7.02;100.00;101404.94;5031202;28;20179;-45
2022/05/31 04:29:31;;;;;;;4.38;3.97;;;;;;;7.14;100.00;101390.53;5031017;28;20168;-42
2022/05/31 04:32:14;;;;;;;3.63;3.33;;;;;;;7.34;100.00;101391.09;5031026;28;20163;-47
2022/05/31 04:34:44;;;;;;;5.55;4.65;;;;;;;7.34;100.00;101390.22;5029728;28;20194;-46
2022/05/31 04:37:11;;;;;;;6.68;5.05;;;;;;;7.43;100.00;101396.31;5029668;28;20168;-48
2022/05/31 04:39:57;;;;;;;6.43;4.65;;;;;;;7.53;100.00;101404.16;5029589;28;20164;-43
2022/05/31 04:42:43;;;;;;;6.35;4.88;;;;;;;7.65;100.00;101393.25;5023347;28;20242;-45
2022/05/31 04:45:28;;;;;;;6.07;4.22;;;;;;;7.75;100.00;101389.53;5030948;28;20158;-44
2022/05/31 04:47:54;;;;;;;4.70;4.30;;;;;;;7.88;100.00;101397.34;5029525;28;20668;-48
2022/05/31 04:50:19;;;;;;;6.57;4.68;;;;;;;7.89;100.00;101405.28;5029426;28;20270;-45
2022/05/31 04:52:45;;;;;;;5.07;4.55;;;;;;;8.01;100.00;101404.19;5030494;28;20199;-47
2022/05/31 04:55:10;;;;;;;4.63;3.83;;;;;;;8.13;100.00;101406.63;5029319;28;20168;-49
2022/05/31 04:57:48;;;;;;;6.97;4.45;;;;;;;8.25;100.00;101402.84;5029124;28;20267;-46
2022/05/31 05:00:14;;;;;;;5.28;4.72;;;;;;;8.39;100.00;101406.13;5030585;28;20200;-46
2022/05/31 05:02:58;;;;;;;6.75;4.88;;;;;;;8.53;100.00;101405.91;5029266;28;20203;-44
2022/05/31 05:05:26;;;;;;;5.75;3.92;;;;;;;8.60;100.00;101402.19;5029122;28;20191;-45
2022/05/31 05:07:56;;;;;;;4.75;4.25;;;;;;;8.48;99.59;101396.19;5029081;28;20657;-45
2022/05/31 05:10:24;;;;;;;7.75;4.28;;;;;;;8.45;99.09;101405.16;5029005;28;20254;-46
2022/05/31 05:13:10;;;;;;;4.68;4.05;;;;;;;8.70;99.06;101408.19;5029966;28;20290;-46
2022/05/31 05:15:55;;;;;;;4.60;3.70;;;;;;;8.83;98.31;101408.81;5030114;28;20175;-44
2022/05/31 05:18:24;;;;;;;7.43;4.22;;;;;;;8.82;97.56;101399.06;5028888;28;20167;-44
2022/05/31 05:20:49;;;;;;;4.35;3.70;;;;;;;8.98;97.12;101399.59;5028845;28;20183;-44
2022/05/31 05:23:15;;;;;;;3.75;3.40;;;;;;;8.97;96.57;101396.03;5028713;28;20214;-43
2022/05/31 05:25:51;;;;;;;3.60;3.30;;;;;;;9.17;96.23;101408.06;5028982;28;20182;-45
2022/05/31 05:31:35;;;;;;;5.30;3.75;;;;;;;9.23;95.16;101400.78;5016969;28;20187;-48
2022/05/31 05:34:19;;;;;;;4.93;3.08;;;;;;;9.41;94.83;101410.16;5030166;28;20203;-44
2022/05/31 05:36:58;;;;;;;3.88;3.42;;;;;;;9.39;94.26;101409.31;5028826;28;20174;-46
2022/05/31 05:39:26;;;;;;;5.88;3.63;;;;;;;9.53;93.72;101410.78;5028640;28;20214;-45
2022/05/31 05:42:24;;;;;;;3.70;3.40;;;;;;;9.27;92.85;101402.47;5018583;28;20270;-46
2022/05/31 05:45:10;;;;;;;5.05;3.30;;;;;;;9.56;92.49;101403.56;5028375;28;20601;-46
2022/05/31 05:47:37;;;;;;;6.60;3.80;;;;;;;9.58;92.60;101401.72;5028103;28;20190;-43
2022/05/31 05:50:04;;;;;;;6.93;3.63;;;;;;;9.90;92.38;101400.00;5029664;28;20255;-44
2022/05/31 05:52:54;;;;;;;5.20;2.95;;;;;;;9.89;91.19;101406.31;5030069;28;20234;-44
2022/05/31 05:55:42;;;;;;;4.07;2.90;;;;;;;10.16;91.01;101393.97;5029521;28;20603;-45
2022/05/31 05:58:27;;;;;;;5.50;3.00;;;;;;;10.46;90.41;101392.25;5030305;28;20167;-44
2022/05/31 06:01:20;;;;;;;3.47;2.72;;;;;;;10.58;89.66;101393.69;5030055;28;20558;-47
2022/05/31 06:04:07;;;;;;;5.70;3.65;;;;;;;10.36;87.99;101395.25;5027362;28;20250;-47
2022/05/31 06:06:37;;;;;;;3.92;3.40;;;;;;;10.19;88.50;101407.28;5028556;28;20206;-45
2022/05/31 06:09:08;;;;;;;4.72;3.15;;;;;;;10.54;88.54;101407.22;5029616;28;20545;-45
2022/05/31 06:11:39;;;;;;;5.57;3.13;;;;;;;10.82;86.68;101396.56;5029819;28;20164;-45
2022/05/31 06:14:13;;;;;;;5.90;2.90;;;;;;;11.23;85.55;101394.41;5027990;28;20184;-46
2022/05/31 06:16:45;;;;;;;7.03;2.67;;;;;;;11.50;83.66;101393.53;5028533;28;20191;-43
2022/05/31 06:19:18;;;;;;;7.47;2.83;;;;;;;11.98;82.53;101396.44;5028229;28;20187;-46
2022/05/31 06:21:45;;;;;;;8.60;2.70;;;;;;;11.71;81.90;101394.59;5027954;28;20267;-43
2022/05/31 06:24:20;;;;;;;4.10;2.47;;;;;;;11.98;81.01;101385.69;5027478;28;20246;-43
2022/05/31 06:26:46;;;;;;;4.55;2.47;;;;;;;12.08;79.74;101398.75;5028016;28;20208;-44
2022/05/31 06:29:12;;;;;;;7.15;2.95;;;;;;;12.00;80.46;101391.88;5027972;28;20724;-43
2022/05/31 06:31:38;;;;;;;6.22;2.80;;;;;;;12.20;80.08;101397.44;5030517;28;20195;-43
2022/05/31 06:34:13;;;;;;;4.78;2.90;;;;;;;11.83;78.00;101398.69;5031190;28;20673;-43
2022/05/31 06:37:10;;;;;;;4.25;2.30;;;;;;;12.26;78.27;101391.81;5032920;28;20179;-41
2022/05/31 06:39:40;;;;;;;4.97;2.75;;;;;;;12.85;77.77;101392.34;5031443;28;20559;-43
2022/05/31 06:42:21;;;;;;;5.10;2.50;;;;;;;12.79;76.47;101406.91;5031601;28;20615;-44
2022/05/31 06:45:06;;;;;;;7.45;3.38;;;;;;;12.49;76.04;101401.75;5031663;28;20387;-43
2022/05/31 06:47:50;;;;;;;5.28;3.10;;;;;;;12.47;76.35;101397.38;5033204;28;20182;-43
2022/05/31 06:50:42;;;;;;;10.75;3.20;;;;;;;12.97;76.08;101399.94;5023782;28;20183;-44
2022/05/31 06:59:18;;;;;;;4.78;2.42;;;;;;;13.59;70.94;101396.53;5032571;28;20167;-44
2022/05/31 07:01:47;;;;;;;6.50;2.70;;;;;;;13.67;71.62;101387.28;5030971;28;20830;-44
2022/05/31 07:04:14;;;;;;;5.28;2.13;;;;;;;13.58;71.02;101397.50;5030597;28;20226;-43
2022/05/31 07:06:39;;;;;;;2.70;1.70;;;;;;;13.26;71.56;101389.84;5031267;28;20206;-45
2022/05/31 07:09:25;;;;;;;4.82;1.90;;;;;;;13.59;71.84;101401.94;5032156;28;20794;-43
2022/05/31 07:11:55;;;;;;;2.88;1.65;;;;;;;13.62;69.44;101391.97;5024940;28;20172;-44
2022/05/31 07:14:39;;;;;;;3.97;1.70;;;;;;;13.87;68.77;101383.75;5011474;28;20192;-43
2022/05/31 07:17:23;;;;;;;2.97;1.45;;;;;;;13.62;68.10;101383.88;5011197;28;20190;-43
2022/05/31 07:19:54;;;;;;;2.17;1.20;;;;;;;13.67;67.82;101382.78;5010904;28;20185;-43
2022/05/31 07:22:19;;;;;;;1.70;1.48;;;;;;;13.31;67.85;101388.72;5010789;28;20265;-42
2022/05/31 07:24:51;;;;;;;4.00;1.77;;;;;;;14.46;66.01;101379.34;5010180;28;20212;-43
2022/05/31 07:27:24;;;;;;;2.35;1.50;;;;;;;15.09;64.00;101377.28;5015457;28;20339;-41
2022/05/31 07:29:55;;;;;;;2.25;1.48;;;;;;;15.02;64.47;101376.72;5028324;28;20200;-43
2022/05/31 07:32:21;;;;;;;7.78;1.30;;;;;;;14.19;65.78;101374.22;5030647;28;20250;-43
2022/05/31 07:34:48;;;;;;;3.25;1.30;;;;;;;14.62;64.96;101377.69;5030293;28;20268;-43
2022/05/31 07:37:14;;;;;;;7.70;1.63;;;;;;;14.15;66.94;101369.94;5030242;28;20226;-43
2022/05/31 07:39:40;;;;;;;2.90;1.60;;;;;;;14.90;65.97;101379.97;5030523;28;20180;-43
2022/05/31 07:42:06;;;;;;;1.65;1.10;;;;;;;15.43;62.59;101367.50;5030027;28;20171;-43
2022/05/31 07:44:32;;;;;;;5.97;1.20;;;;;;;14.98;62.17;101363.44;5033201;28;20202;-43
2022/05/31 07:47:02;;;;;;;1.33;1.00;;;;;;;14.81;62.99;101367.81;5030058;28;20680;-44
2022/05/31 07:49:29;;;;;;;2.10;1.10;;;;;;;15.07;60.53;101363.00;5049404;28;20367;-44
2022/05/31 07:52:21;;;;;;;3.38;1.20;;;;;;;14.82;62.77;101374.97;5048656;28;20226;-44
2022/05/31 07:55:15;;;;;;;1.85;0.90;;;;;;;15.43;61.37;101365.69;5049836;28;20182;-44
2022/05/31 08:00:52;;;;;;;2.53;0.93;;;;;;;15.38;61.92;101361.47;5051222;28;20241;-41
2022/05/31 08:03:17;;;;;;;5.60;1.00;;;;;;;15.13;60.13;101359.09;5049588;28;20669;-42
2022/05/31 08:05:43;;;;;;;3.05;1.17;;;;;;;15.68;60.72;101363.56;5030002;28;20566;-42
2022/05/31 08:08:09;;;;;;;2.03;1.10;;;;;;;16.02;60.95;101360.03;5023737;28;20168;-42
2022/05/31 08:10:35;;;;;;;4.72;1.00;;;;;;;14.88;59.76;101362.13;5031007;28;20650;-43
2022/05/31 08:13:01;;;;;;;1.75;0.93;;;;;;;15.09;60.20;101358.41;5015062;28;20223;-42
2022/05/31 08:15:26;;;;;;;0.95;0.80;;;;;;;15.13;59.88;101357.31;5011357;28;20165;-42
2022/05/31 08:17:52;;;;;;;2.08;0.82;;;;;;;14.73;60.15;101364.59;5011226;28;20275;-42
2022/05/31 08:20:17;;;;;;;3.45;1.00;;;;;;;14.73;60.10;101361.03;5011249;28;20173;-44
2022/05/31 08:22:44;;;;;;;2.58;0.85;;;;;;;15.25;60.75;101358.50;5010592;28;20216;-42
2022/05/31 08:25:10;;;;;;;1.38;1.08;;;;;;;15.27;60.24;101359.31;5010813;28;20419;-43
2022/05/31 08:27:36;;;;;;;2.67;1.05;;;;;;;14.95;59.56;101359.03;5009923;28;20257;-42
2022/05/31 08:30:04;;;;;;;1.80;1.02;;;;;;;14.17;63.22;101357.28;5011359;28;20490;-43
2022/05/31 08:32:31;;;;;;;3.67;1.23;;;;;;;15.72;61.65;101359.78;5011420;28;20246;-44
2022/05/31 08:34:56;;;;;;;2.47;1.15;;;;;;;16.21;59.10;101354.53;5009842;28;20192;-43
2022/05/31 08:37:22;;;;;;;1.77;0.98;;;;;;;15.86;57.81;101357.25;5011417;28;20169;-42
2022/05/31 08:39:47;;;;;;;4.72;1.25;;;;;;;15.89;58.85;101350.81;5011796;28;20168;-42
2022/05/31 08:42:21;;;;;;;2.13;0.85;;;;;;;16.40;59.14;101354.44;5010630;28;20188;-44
2022/05/31 08:45:01;;;;;;;1.60;0.93;;;;;;;16.80;56.21;101349.56;5010451;28;20194;-45
2022/05/31 08:47:36;;;;;;;1.67;0.80;;;;;;;16.63;55.40;101351.31;5010592;28;20199;-47
2022/05/31 08:53:19;;;;;;;2.10;1.00;;;;;;;17.11;54.74;101350.53;5009717;28;20214;-46
2022/05/31 08:58:50;;;;;;;1.63;0.93;;;;;;;17.26;53.15;101350.50;5009235;28;20247;-45
2022/05/31 09:01:19;;;;;;;1.27;0.82;;;;;;;17.57;53.82;101347.84;5010702;28;20563;-45
2022/05/31 09:03:51;;;;;;;2.38;0.70;;;;;;;17.61;52.43;101336.72;5009842;28;20201;-46
2022/05/31 09:06:25;;;;;;;1.50;0.68;;;;;;;17.92;51.79;101322.22;5010679;28;20518;-46
2022/05/31 09:09:01;;;;;;;0.85;0.60;;;;;;;16.80;53.55;101338.72;5010453;28;20243;-46
2022/05/31 09:11:39;;;;;;;1.35;0.75;;;;;;;16.69;54.51;101339.28;5012834;28;20238;-46
2022/05/31 09:14:57;;;;;;;1.17;0.60;;;;;;;16.13;54.84;101343.25;5061236;28;20218;-46
2022/05/31 09:17:35;;;;;;;1.27;0.80;;;;;;;16.05;54.55;101333.72;5027647;28;20228;-46
2022/05/31 09:20:38;;;;;;;1.63;0.70;;;;;;;16.62;55.53;101337.91;5027830;28;20265;-48
2022/05/31 09:23:04;;;;;;;4.32;1.10;;;;;;;16.33;54.31;101334.94;5025302;28;20222;-48
2022/05/31 09:25:39;;;;;;;0.93;0.60;;;;;;;17.17;52.96;101337.50;5029749;28;20188;-47
2022/05/31 09:28:15;;;;;;;0.65;0.60;;;;;;;17.23;52.77;101326.31;5029781;28;20160;-45
2022/05/31 09:30:44;;;;;;;1.88;0.73;;;;;;;17.74;52.91;101327.88;5061986;28;20642;-45
2022/05/31 09:33:22;;;;;;;0.98;0.65;;;;;;;17.18;52.33;101339.22;5029283;28;20208;-45
2022/05/31 09:36:09;;;;;;;0.57;0.52;;;;;;;17.27;51.20;101335.13;5029692;28;20176;-47
2022/05/31 09:39:03;;;;;;;1.90;0.70;;;;;;;17.14;51.99;101331.38;5029603;28;20183;-47
2022/05/31 09:41:34;;;;;;;0.52;0.47;;;;;;;17.48;50.57;101328.44;5029881;28;20184;-45
2022/05/31 09:44:02;;;;;;;1.25;0.50;;;;;;;17.57;50.65;101329.72;5028986;28;20211;-46
2022/05/31 09:46:30;;;;;;;1.52;0.47;;;;;;;18.05;50.77;101316.03;5029852;28;20191;-47
2022/05/31 09:48:58;;;;;;;1.35;0.70;;;;;;;18.19;50.59;101326.03;5029751;28;20171;-46
2022/05/31 09:51:41;;;;;;;2.67;0.70;;;;;;;18.35;52.29;101323.25;5030168;28;20167;-46
2022/05/31 09:57:24;;;;;;;0.93;0.50;;;;;;;18.02;50.03;101314.41;5029751;28;20257;-46
2022/05/31 10:00:19;;;;;;;2.42;0.82;;;;;;;18.06;51.98;101315.06;5009880;28;20191;-46
2022/05/31 10:03:08;;;;;;;1.83;0.63;;;;;;;17.78;49.89;101313.16;5029109;28;20696;-46
2022/05/31 10:05:34;;;;;;;1.35;0.68;;;;;;;16.69;50.41;101317.66;5029926;28;20603;-45
2022/05/31 10:08:01;;;;;;;1.33;0.55;;;;;;;16.83;50.99;101314.19;5033497;28;20365;-46
2022/05/31 10:10:35;;;;;;;1.65;0.52;;;;;;;16.86;50.96;101314.03;5033364;28;20215;-46
2022/05/31 10:13:04;;;;;;;0.80;0.47;;;;;;;17.16;51.40;101318.63;5017389;28;20200;-47
2022/05/31 10:15:44;;;;;;;1.27;0.70;;;;;;;17.29;49.72;101317.84;5013320;28;20513;-46
2022/05/31 10:18:26;;;;;;;0.40;0.40;;;;;;;17.83;51.13;101311.94;5013013;28;20172;-45
2022/05/31 10:21:07;;;;;;;1.83;0.70;;;;;;;16.97;50.42;101319.69;5013439;28;20212;-44
2022/05/31 10:23:39;;;;;;;1.75;0.40;;;;;;;16.44;50.47;101308.19;5012434;28;20236;-45
2022/05/31 10:26:33;;;;;;;0.70;0.50;;;;;;;17.40;48.73;101311.75;5012197;28;20247;-45
2022/05/31 10:29:33;;;;;;;3.45;0.52;;;;;;;17.38;49.98;101318.25;5013144;28;20169;-45
2022/05/31 10:32:45;;;;;;;0.65;0.40;;;;;;;16.66;50.07;101323.22;5013252;28;20256;-47
2022/05/31 10:35:19;;;;;;;0.50;0.50;;;;;;;16.67;50.97;101314.16;5012750;28;20165;-44
2022/05/31 10:38:04;;;;;;;0.82;0.50;;;;;;;17.28;48.67;101318.78;5011760;28;20208;-47
2022/05/31 10:40:33;;;;;;;0.43;0.43;;;;;;;16.57;48.33;101308.38;5013061;28;20508;-47
2022/05/31 10:43:11;;;;;;;1.25;0.50;;;;;;;17.18;51.75;101314.00;5012522;28;20207;-47
2022/05/31 10:45:38;;;;;;;0.68;0.35;;;;;;;17.46;47.62;101300.56;5013187;28;20157;-44
2022/05/31 10:48:03;;;;;;;2.00;0.80;;;;;;;16.41;49.57;101310.19;5012973;28;20184;-47
2022/05/31 10:50:46;;;;;;;1.95;0.70;;;;;;;16.24;52.46;101306.56;5012902;28;20195;-47
2022/05/31 10:53:30;;;;;;;1.50;0.60;;;;;;;15.91;56.57;101306.53;5012055;28;20223;-47
2022/05/31 10:56:02;;;;;;;1.15;0.55;;;;;;;16.02;56.64;101309.53;5012885;28;20256;-45
2022/05/31 10:58:47;;;;;;;1.15;0.60;;;;;;;15.74;55.26;101311.97;5012665;28;20312;-47
2022/05/31 11:01:42;;;;;;;1.23;0.40;;;;;;;15.54;53.01;101316.53;5012411;28;20176;-46
2022/05/31 11:04:36;;;;;;;1.27;0.70;;;;;;;16.38;55.58;101308.53;4999145;28;20312;-45
2022/05/31 11:07:16;;;;;;;1.95;0.60;;;;;;;16.44;50.97;101302.78;5012659;28;20212;-43
2022/05/31 11:12:57;;;;;;;0.52;0.30;;;;;;;17.25;49.12;101291.00;5012224;28;20203;-47
2022/05/31 11:15:43;;;;;;;0.82;0.60;;;;;;;16.14;51.07;101291.81;5012352;28;20230;-45
2022/05/31 11:18:15;;;;;;;0.98;0.60;;;;;;;16.20;55.92;101302.31;5011794;28;20191;-45
2022/05/31 11:21:03;;;;;;;3.35;0.55;;;;;;;15.18;58.51;101317.44;5012478;28;20607;-47
2022/05/31 11:24:04;;;;;;;3.33;0.80;;;;;;;15.23;58.88;101309.97;5011321;28;20208;-47
2022/05/31 11:26:29;;;;;;;0.98;0.70;;;;;;;15.85;59.26;101313.16;5012364;28;20288;-44
2022/05/31 11:29:14;;;;;;;1.27;0.70;;;;;;;15.83;56.56;101300.66;5012874;28;20195;-43
2022/05/31 11:31:51;;;;;;;1.80;0.47;;;;;;;15.17;56.82;101307.59;5013073;28;20189;-45
2022/05/31 11:34:44;;;;;;;0.88;0.63;;;;;;;15.77;55.18;101295.59;5013433;28;20210;-45
2022/05/31 11:37:36;;;;;;;1.45;0.60;;;;;;;15.47;54.63;101303.44;5011751;28;20216;-47
2022/05/31 11:40:21;;;;;;;1.75;0.63;;;;;;;16.15;54.81;101295.38;5008907;28;20733;-45
2022/05/31 11:43:31;;;;;;;1.90;0.70;;;;;;;16.99;52.22;101303.34;5011242;28;20176;-46
2022/05/31 11:46:28;;;;;;;1.65;0.68;;;;;;;16.48;52.49;101298.94;5008854;28;20196;-46
2022/05/31 11:49:07;;;;;;;5.93;1.10;;;;;;;16.80;52.54;101295.44;5012127;28;20165;-47
2022/05/31 11:51:56;;;;;;;5.13;1.10;;;;;;;16.93;55.77;101299.19;5011764;28;20558;-46
2022/05/31 11:55:25;;;;;;;5.68;0.95;;;;;;;17.13;54.13;101292.59;5011033;28;20199;-46
2022/05/31 11:57:52;;;;;;;5.25;1.30;;;;;;;17.14;54.23;101294.34;5011827;28;20535;-46
2022/05/31 12:00:18;;;;;;;1.92;0.88;;;;;;;16.55;54.71;101291.38;5011438;28;20160;-46
2022/05/31 12:02:56;;;;;;;3.70;1.13;;;;;;;17.06;55.28;101294.78;5011529;28;20303;-45
2022/05/31 12:05:33;;;;;;;1.20;0.70;;;;;;;16.78;53.98;101284.66;5011102;28;20201;-46
2022/05/31 12:08:10;;;;;;;2.88;0.90;;;;;;;17.29;54.53;101290.75;5011163;28;20160;-47
2022/05/31 12:10:48;;;;;;;1.15;0.60;;;;;;;17.33;53.43;101295.97;5011342;28;20187;-44
2022/05/31 12:13:16;;;;;;;7.57;1.13;;;;;;;16.89;54.86;101287.66;5010440;28;20205;-45
2022/05/31 12:15:45;;;;;;;4.43;0.88;;;;;;;16.03;54.01;101278.88;5011313;28;20190;-44
2022/05/31 12:18:28;;;;;;;2.85;1.00;;;;;;;16.32;54.17;101279.13;5011040;28;20271;-47
2022/05/31 12:21:08;;;;;;;1.40;0.60;;;;;;;16.20;52.93;101280.69;5011302;28;20595;-45
2022/05/31 12:23:44;;;;;;;2.47;0.80;;;;;;;16.22;52.48;101277.88;5010385;28;20256;-47
2022/05/31 12:26:19;;;;;;;0.90;0.50;;;;;;;16.05;52.92;101266.16;5011055;28;20841;-45
2022/05/31 12:28:52;;;;;;;0.98;0.50;;;;;;;15.85;52.93;101259.13;5010309;28;20191;-45
2022/05/31 12:31:26;;;;;;;0.75;0.50;;;;;;;16.79;51.72;101269.28;5010856;28;20260;-46
2022/05/31 12:33:52;;;;;;;1.10;0.60;;;;;;;16.03;51.39;101265.38;5010495;28;20237;-47